Celebrity Summit — 9HJC9 — position and weather

sailwx.info

Track history (hours):
 
Tides and Currents Weather Stations Pressure Air Temp Water Temp Dewpoint Dewpoint Depression Visibility Wind Speed Wind Dir Waves Ship Positions

Celebrity Summit

Last reported at 2017-Apr-30 14:30 UTC. Time now 2017-Apr-30 14:49 UTC.
Position N 40°40' W 074°04'.

Length 294 m; draft 8.3 m.

Type: Passenger vessel. MMSI: 249047000.

Date/timePositionNaut miles runAvg speedWind from/ knotsBaromVisibWave heightAir tempDewpointWater temp
2017-Apr-30 14:30N 40°40' W 074°04'0 0.0
2017-Apr-30 13:30N 40°40' W 074°04'0 0.0
2017-Apr-30 13:00N 40°40' W 074°04'1 1.6
2017-Apr-30 12:30N 40°40' W 074°03'1 2.2
2017-Apr-30 12:00N 40°39' W 074°03'1 1.5
2017-Apr-30 11:30N 40°39' W 074°03'2 4.4
2017-Apr-30 11:00N 40°37' W 074°03'815.1
2017-Apr-30 10:30N 40°31' W 073°58'611.4
2017-Apr-30 10:00N 40°28' W 073°51'611.2
2017-Apr-30 09:29N 40°25' W 073°45'9414.5
2017-Apr-30 03:00N 39°18' W 072°18'5213.0 230 / 301019.0 21.0
2017-Apr-29 23:00N 38°42' W 071°30'14418.0 230 / 32 2.2
2017-Apr-29 15:00N 36°54' W 069°30'6521.6 230 / 251022.0 21.0
2017-Apr-29 12:00N 36°06' W 068°36'8421.0 220 / 23 5.4
2017-Apr-29 08:00N 35°06' W 067°24'11218.7 230 / 221025.0 24.0
2017-Apr-29 02:00N 33°42' W 065°54'9719.4 230 / 101027.0 21.0
2017-Apr-28 21:00N 32°30' W 064°36'16 2.2 190 / 12 5.4
2017-Apr-28 14:00N 32°18' W 064°48'39 3.3 140 / 101027.0 21.0
2017-Apr-28 02:00N 32°48' W 064°18'39 3.3 140 / 201024.0 21.0
2017-Apr-27 14:00N 32°18' W 064°48'86 8.6 320 / 251023.0 21.0
2017-Apr-27 04:00N 30°54' W 064°24'5413.6 140 / 201022.0 16.0
2017-Apr-27 00:00N 30°00' W 064°18'5413.6 120 / 18
2017-Apr-26 20:00N 29°06' W 064°12'12015.0 130 / 191019.0 25.0
2017-Apr-26 12:00N 27°06' W 064°06'5413.6 130 / 19 5.4
2017-Apr-26 08:00N 26°12' W 064°00'7214.4 120 / 221016.0 24.0
2017-Apr-26 03:00N 25°00' W 063°54'4812.1 140 / 251016.0 16.0
2017-Apr-25 23:00N 24°12' W 063°48'4816.1 100 / 12 1.1
2017-Apr-25 20:00N 23°24' W 063°42'6616.6 100 / 251016.0 24.0
2017-Apr-25 16:00N 22°18' W 063°36'6613.2 140 / 281017.0 15.0
2017-Apr-25 11:00N 21°12' W 063°30'4816.0 120 / 27 5.4
2017-Apr-25 08:00N 20°24' W 063°30'7214.4 100 / 291014.0 24.0
2017-Apr-25 03:00N 19°12' W 063°24'4816.1 100 / 281015.0 15.0
2017-Apr-25 00:00N 18°24' W 063°18'3 4.6 090 / 28
2017-Apr-24 23:22N 18°23' W 063°21'514.9
2017-Apr-24 23:00N 18°18' W 063°20'714.2
2017-Apr-24 22:30N 18°11' W 063°19'814.7
2017-Apr-24 21:58N 18°04' W 063°15'714.0
2017-Apr-24 21:30N 18°01' W 063°09'9 1.6
2017-Apr-24 16:00N 18°00' W 063°00'3 0.7 090 / 251017.0 15.0
2017-Apr-24 11:24N 18°00' W 063°03'1 3.3
2017-Apr-24 11:00N 18°00' W 063°05'6 9.8
2017-Apr-24 10:24N 18°01' W 063°11'1 3.5
2017-Apr-24 10:00N 18°00' W 063°12'427.5 090 / 24 5.4
2017-Apr-24 09:50N 18°01' W 063°16'3 8.5
2017-Apr-24 09:27N 18°02' W 063°20'4 8.5
2017-Apr-24 08:59N 18°02' W 063°24'4 8.5
2017-Apr-24 08:30N 18°02' W 063°28'3 5.8
2017-Apr-24 08:00N 18°00' W 063°30'532.9 090 / 251014.0 24.0
2017-Apr-24 07:51N 18°03' W 063°34'4 8.5
2017-Apr-24 07:25N 18°03' W 063°38'33 7.4
2017-Apr-24 03:00N 18°06' W 064°12'2410.1 100 / 251015.0 16.0
2017-Apr-24 00:38N 18°09' W 064°37'3 8.2
2017-Apr-24 00:13N 18°10' W 064°40'2 8.3
2017-Apr-23 23:59N 18°10' W 064°43'4 8.3
2017-Apr-23 23:30N 18°10' W 064°47'4 8.0
2017-Apr-23 23:00N 18°11' W 064°51'6404.0
2017-Apr-23 23:00N 18°06' W 064°48'1020.0 080 / 28 5.4
2017-Apr-23 22:30N 18°14' W 064°54'20 1.4
2017-Apr-23 08:00N 18°24' W 065°12'3510.7 100 / 191014.0 23.0
2017-Apr-23 04:43N 18°39' W 065°45'210.3
2017-Apr-23 04:30N 18°39' W 065°48'510.3
2017-Apr-23 04:00N 18°40' W 065°53'6 9.5
2017-Apr-23 03:23N 18°38' W 065°59'410.5
2017-Apr-23 03:01N 18°36' W 066°02'510.2
2017-Apr-23 02:30N 18°33' W 066°06'4 8.4
2017-Apr-23 02:01N 18°29' W 066°08'1 3.0
2017-Apr-23 01:31N 18°28' W 066°06'1 1.1
2017-Apr-23 00:54N 18°28' W 066°06'0 0.0
2017-Apr-23 00:30N 18°28' W 066°06'0 0.0
2017-Apr-23 00:00N 18°28' W 066°06'0 0.0
2017-Apr-22 23:30N 18°28' W 066°06'0 0.0
2017-Apr-22 23:00N 18°28' W 066°06'0 0.0
2017-Apr-22 22:30N 18°28' W 066°06'0 0.0
2017-Apr-22 21:48N 18°28' W 066°06'0 0.0
2017-Apr-22 21:30N 18°28' W 066°06'0 0.0
2017-Apr-22 21:00N 18°28' W 066°06'0 0.0
2017-Apr-22 20:30N 18°28' W 066°06'0 0.0
2017-Apr-22 19:54N 18°28' W 066°06'0 0.0
2017-Apr-22 19:30N 18°28' W 066°06'0 0.0
2017-Apr-22 19:00N 18°28' W 066°06'0 0.0
2017-Apr-22 18:30N 18°28' W 066°06'0 0.0
2017-Apr-22 18:00N 18°28' W 066°06'0 0.0
2017-Apr-22 17:30N 18°28' W 066°06'0 0.0
2017-Apr-22 17:00N 18°28' W 066°06'0 0.0
2017-Apr-22 16:30N 18°28' W 066°06'0 0.0
2017-Apr-22 16:00N 18°28' W 066°06'0 0.0
2017-Apr-22 15:30N 18°28' W 066°06'0 0.0
2017-Apr-22 15:00N 18°28' W 066°06'0 0.0
2017-Apr-22 14:30N 18°28' W 066°06'0 0.0
2017-Apr-22 13:30N 18°28' W 066°06'0 0.0
2017-Apr-22 13:00N 18°28' W 066°06'0 0.0
2017-Apr-22 12:30N 18°28' W 066°06'0 0.0
2017-Apr-22 12:00N 18°28' W 066°06'0 0.0
2017-Apr-22 11:30N 18°28' W 066°06'0 0.0
2017-Apr-22 11:00N 18°28' W 066°06'6895.6
2017-Apr-22 11:00N 18°24' W 066°00'613.1 180 / 6 5.4
2017-Apr-22 10:30N 18°28' W 066°06'0 0.0
2017-Apr-22 10:00N 18°28' W 066°06'0 0.0
2017-Apr-22 09:30N 18°28' W 066°06'0 0.0
2017-Apr-22 09:00N 18°28' W 066°06'2 4.0
2017-Apr-22 08:30N 18°28' W 066°08'510.4
2017-Apr-22 08:00N 18°33' W 066°08'8 8.5
2017-Apr-22 07:07N 18°41' W 066°07'1 7.5
2017-Apr-22 06:56N 18°42' W 066°06'3 8.3
2017-Apr-22 06:30N 18°41' W 066°02'15 9.6
2017-Apr-22 05:00N 18°36' W 065°48'17 8.5 050 / 81015.7 24.0
2017-Apr-22 03:00N 18°36' W 065°30'35 6.7 050 / 181016.0 16.0
2017-Apr-21 21:51N 18°17' W 064°60'4 7.5
2017-Apr-21 21:18N 18°20' W 064°57'0 0.5
2017-Apr-21 20:54N 18°20' W 064°57'0 0.0
2017-Apr-21 20:27N 18°20' W 064°57'0 0.0
2017-Apr-21 12:33N 18°20' W 064°57'0 0.0
2017-Apr-21 12:30N 18°20' W 064°57'7 3.4
2017-Apr-21 10:30N 18°14' W 064°53'4 9.1
2017-Apr-21 10:00N 18°11' W 064°50'4 8.9
2017-Apr-21 09:30N 18°10' W 064°46'1510.1
2017-Apr-21 08:00N 18°06' W 064°30'46 9.2 040 / 161014.0 22.0
2017-Apr-21 03:00N 18°00' W 063°42'4 6.7 080 / 141015.0 16.0
2017-Apr-21 02:21N 18°04' W 063°39'3 8.8
2017-Apr-21 01:57N 18°03' W 063°36'5 8.8
2017-Apr-21 01:26N 18°03' W 063°31'4 8.8
2017-Apr-21 00:58N 18°02' W 063°27'5 8.8
2017-Apr-21 00:27N 18°02' W 063°22'4 8.8
2017-Apr-20 23:59N 18°01' W 063°18'4 8.8
2017-Apr-20 23:30N 18°01' W 063°13'4 8.7
2017-Apr-20 23:00N 18°01' W 063°09'5 8.8
2017-Apr-20 22:28N 18°00' W 063°04'  
Track history (hours):
 
Tides and Currents Weather Stations Pressure Air Temp Water Temp Dewpoint Dewpoint Depression Visibility Wind Speed Wind Dir Waves Ship Positions

Celebrity Summit

Last reported at 2017-Apr-30 14:30 UTC. Time now 2017-Apr-30 14:49 UTC.
Position N 40°40' W 074°04'.

Length 294 m; draft 8.3 m.

Type: Passenger vessel. MMSI: 249047000.

Date/timePositionNaut miles runAvg speedWind from/ knotsBaromVisibWave heightAir tempDewpointWater temp
2017-Apr-30 14:30N 40°40' W 074°04'0 0.0
2017-Apr-30 13:30N 40°40' W 074°04'0 0.0
2017-Apr-30 13:00N 40°40' W 074°04'1 1.6
2017-Apr-30 12:30N 40°40' W 074°03'1 2.2
2017-Apr-30 12:00N 40°39' W 074°03'1 1.5
2017-Apr-30 11:30N 40°39' W 074°03'2 4.4
2017-Apr-30 11:00N 40°37' W 074°03'815.1
2017-Apr-30 10:30N 40°31' W 073°58'611.4
2017-Apr-30 10:00N 40°28' W 073°51'611.2
2017-Apr-30 09:29N 40°25' W 073°45'9414.5
2017-Apr-30 03:00N 39°18' W 072°18'5213.0 230 / 301019.0 21.0
2017-Apr-29 23:00N 38°42' W 071°30'14418.0 230 / 32 2.2
2017-Apr-29 15:00N 36°54' W 069°30'6521.6 230 / 251022.0 21.0
2017-Apr-29 12:00N 36°06' W 068°36'8421.0 220 / 23 5.4
2017-Apr-29 08:00N 35°06' W 067°24'11218.7 230 / 221025.0 24.0
2017-Apr-29 02:00N 33°42' W 065°54'9719.4 230 / 101027.0 21.0
2017-Apr-28 21:00N 32°30' W 064°36'16 2.2 190 / 12 5.4
2017-Apr-28 14:00N 32°18' W 064°48'39 3.3 140 / 101027.0 21.0
2017-Apr-28 02:00N 32°48' W 064°18'39 3.3 140 / 201024.0 21.0
2017-Apr-27 14:00N 32°18' W 064°48'86 8.6 320 / 251023.0 21.0
2017-Apr-27 04:00N 30°54' W 064°24'5413.6 140 / 201022.0 16.0
2017-Apr-27 00:00N 30°00' W 064°18'5413.6 120 / 18
2017-Apr-26 20:00N 29°06' W 064°12'12015.0 130 / 191019.0 25.0
2017-Apr-26 12:00N 27°06' W 064°06'5413.6 130 / 19 5.4
2017-Apr-26 08:00N 26°12' W 064°00'7214.4 120 / 221016.0 24.0
2017-Apr-26 03:00N 25°00' W 063°54'4812.1 140 / 251016.0 16.0
2017-Apr-25 23:00N 24°12' W 063°48'4816.1 100 / 12 1.1
2017-Apr-25 20:00N 23°24' W 063°42'6616.6 100 / 251016.0 24.0
2017-Apr-25 16:00N 22°18' W 063°36'6613.2 140 / 281017.0 15.0
2017-Apr-25 11:00N 21°12' W 063°30'4816.0 120 / 27 5.4
2017-Apr-25 08:00N 20°24' W 063°30'7214.4 100 / 291014.0 24.0
2017-Apr-25 03:00N 19°12' W 063°24'4816.1 100 / 281015.0 15.0
2017-Apr-25 00:00N 18°24' W 063°18'3 4.6 090 / 28
2017-Apr-24 23:22N 18°23' W 063°21'514.9
2017-Apr-24 23:00N 18°18' W 063°20'714.2
2017-Apr-24 22:30N 18°11' W 063°19'814.7
2017-Apr-24 21:58N 18°04' W 063°15'714.0
2017-Apr-24 21:30N 18°01' W 063°09'9 1.6
2017-Apr-24 16:00N 18°00' W 063°00'3 0.7 090 / 251017.0 15.0
2017-Apr-24 11:24N 18°00' W 063°03'1 3.3
2017-Apr-24 11:00N 18°00' W 063°05'6 9.8
2017-Apr-24 10:24N 18°01' W 063°11'1 3.5
2017-Apr-24 10:00N 18°00' W 063°12'427.5 090 / 24 5.4
2017-Apr-24 09:50N 18°01' W 063°16'3 8.5
2017-Apr-24 09:27N 18°02' W 063°20'4 8.5
2017-Apr-24 08:59N 18°02' W 063°24'4 8.5
2017-Apr-24 08:30N 18°02' W 063°28'3 5.8
2017-Apr-24 08:00N 18°00' W 063°30'532.9 090 / 251014.0 24.0
2017-Apr-24 07:51N 18°03' W 063°34'4 8.5
2017-Apr-24 07:25N 18°03' W 063°38'33 7.4
2017-Apr-24 03:00N 18°06' W 064°12'2410.1 100 / 251015.0 16.0
2017-Apr-24 00:38N 18°09' W 064°37'3 8.2
2017-Apr-24 00:13N 18°10' W 064°40'2 8.3
2017-Apr-23 23:59N 18°10' W 064°43'4 8.3
2017-Apr-23 23:30N 18°10' W 064°47'4 8.0
2017-Apr-23 23:00N 18°11' W 064°51'6404.0
2017-Apr-23 23:00N 18°06' W 064°48'1020.0 080 / 28 5.4
2017-Apr-23 22:30N 18°14' W 064°54'20 1.4
2017-Apr-23 08:00N 18°24' W 065°12'3510.7 100 / 191014.0 23.0
2017-Apr-23 04:43N 18°39' W 065°45'210.3
2017-Apr-23 04:30N 18°39' W 065°48'510.3
2017-Apr-23 04:00N 18°40' W 065°53'6 9.5
2017-Apr-23 03:23N 18°38' W 065°59'410.5
2017-Apr-23 03:01N 18°36' W 066°02'510.2
2017-Apr-23 02:30N 18°33' W 066°06'4 8.4
2017-Apr-23 02:01N 18°29' W 066°08'1 3.0
2017-Apr-23 01:31N 18°28' W 066°06'1 1.1
2017-Apr-23 00:54N 18°28' W 066°06'0 0.0
2017-Apr-23 00:30N 18°28' W 066°06'0 0.0
2017-Apr-23 00:00N 18°28' W 066°06'0 0.0
2017-Apr-22 23:30N 18°28' W 066°06'0 0.0
2017-Apr-22 23:00N 18°28' W 066°06'0 0.0
2017-Apr-22 22:30N 18°28' W 066°06'0 0.0
2017-Apr-22 21:48N 18°28' W 066°06'0 0.0
2017-Apr-22 21:30N 18°28' W 066°06'0 0.0
2017-Apr-22 21:00N 18°28' W 066°06'0 0.0
2017-Apr-22 20:30N 18°28' W 066°06'0 0.0
2017-Apr-22 19:54N 18°28' W 066°06'0 0.0
2017-Apr-22 19:30N 18°28' W 066°06'0 0.0
2017-Apr-22 19:00N 18°28' W 066°06'0 0.0
2017-Apr-22 18:30N 18°28' W 066°06'0 0.0
2017-Apr-22 18:00N 18°28' W 066°06'0 0.0
2017-Apr-22 17:30N 18°28' W 066°06'0 0.0
2017-Apr-22 17:00N 18°28' W 066°06'0 0.0
2017-Apr-22 16:30N 18°28' W 066°06'0 0.0
2017-Apr-22 16:00N 18°28' W 066°06'0 0.0
2017-Apr-22 15:30N 18°28' W 066°06'0 0.0
2017-Apr-22 15:00N 18°28' W 066°06'0 0.0
2017-Apr-22 14:30N 18°28' W 066°06'0 0.0
2017-Apr-22 13:30N 18°28' W 066°06'0 0.0
2017-Apr-22 13:00N 18°28' W 066°06'0 0.0
2017-Apr-22 12:30N 18°28' W 066°06'0 0.0
2017-Apr-22 12:00N 18°28' W 066°06'0 0.0
2017-Apr-22 11:30N 18°28' W 066°06'0 0.0
2017-Apr-22 11:00N 18°28' W 066°06'6895.6
2017-Apr-22 11:00N 18°24' W 066°00'613.1 180 / 6 5.4
2017-Apr-22 10:30N 18°28' W 066°06'0 0.0
2017-Apr-22 10:00N 18°28' W 066°06'0 0.0
2017-Apr-22 09:30N 18°28' W 066°06'0 0.0
2017-Apr-22 09:00N 18°28' W 066°06'2 4.0
2017-Apr-22 08:30N 18°28' W 066°08'510.4
2017-Apr-22 08:00N 18°33' W 066°08'8 8.5
2017-Apr-22 07:07N 18°41' W 066°07'1 7.5
2017-Apr-22 06:56N 18°42' W 066°06'3 8.3
2017-Apr-22 06:30N 18°41' W 066°02'15 9.6
2017-Apr-22 05:00N 18°36' W 065°48'17 8.5 050 / 81015.7 24.0
2017-Apr-22 03:00N 18°36' W 065°30'35 6.7 050 / 181016.0 16.0
2017-Apr-21 21:51N 18°17' W 064°60'4 7.5
2017-Apr-21 21:18N 18°20' W 064°57'0 0.5
2017-Apr-21 20:54N 18°20' W 064°57'0 0.0
2017-Apr-21 20:27N 18°20' W 064°57'0 0.0
2017-Apr-21 12:33N 18°20' W 064°57'0 0.0
2017-Apr-21 12:30N 18°20' W 064°57'7 3.4
2017-Apr-21 10:30N 18°14' W 064°53'4 9.1
2017-Apr-21 10:00N 18°11' W 064°50'4 8.9
2017-Apr-21 09:30N 18°10' W 064°46'1510.1
2017-Apr-21 08:00N 18°06' W 064°30'46 9.2 040 / 161014.0 22.0
2017-Apr-21 03:00N 18°00' W 063°42'4 6.7 080 / 141015.0 16.0
2017-Apr-21 02:21N 18°04' W 063°39'3 8.8
2017-Apr-21 01:57N 18°03' W 063°36'5 8.8
2017-Apr-21 01:26N 18°03' W 063°31'4 8.8
2017-Apr-21 00:58N 18°02' W 063°27'5 8.8
2017-Apr-21 00:27N 18°02' W 063°22'4 8.8
2017-Apr-20 23:59N 18°01' W 063°18'4 8.8
2017-Apr-20 23:30N 18°01' W 063°13'4 8.7
2017-Apr-20 23:00N 18°01' W 063°09'5 8.8
2017-Apr-20 22:28N 18°00' W 063°04'  

Dump ship's entire track history